createdAt,value
2022-08-17T00:00:10.225Z,71.10
2022-08-17T00:03:02.939Z,71.10
2022-08-17T00:05:37.896Z,71.10
2022-08-17T00:08:04.889Z,71.20
2022-08-17T00:10:32.426Z,71.10
2022-08-17T00:12:59.600Z,71.30
2022-08-17T00:15:26.693Z,71.30
2022-08-17T00:17:53.609Z,71.30
2022-08-17T00:20:20.493Z,71.30
2022-08-17T00:23:26.468Z,71.30
2022-08-17T00:25:53.995Z,71.20
2022-08-17T00:28:21.157Z,71.20
2022-08-17T00:30:51.468Z,71.00
2022-08-17T00:33:25.407Z,70.90
2022-08-17T00:35:52.988Z,70.70
2022-08-17T00:38:20.260Z,70.70
2022-08-17T00:40:55.781Z,70.70
2022-08-17T00:43:45.233Z,70.60
2022-08-17T00:46:16.606Z,70.60
2022-08-17T00:48:44.306Z,70.50
2022-08-17T00:52:11.886Z,70.60
2022-08-17T00:54:42.553Z,70.40
2022-08-17T00:57:20.319Z,70.30
2022-08-17T01:00:02.159Z,70.30
2022-08-17T01:02:41.170Z,70.10
2022-08-17T01:05:16.660Z,69.90
2022-08-17T01:07:47.716Z,69.60
2022-08-17T01:11:00.424Z,69.60
2022-08-17T01:13:03.547Z,69.40
2022-08-17T01:15:33.396Z,69.10
2022-08-17T01:18:00.146Z,69.30
2022-08-17T01:20:27.112Z,69.10
2022-08-17T01:22:54.099Z,69.10
2022-08-17T01:25:21.428Z,68.90
2022-08-17T01:27:49.036Z,68.70
2022-08-17T01:30:57.397Z,68.50
2022-08-17T01:33:03.310Z,68.50
2022-08-17T01:35:30.041Z,68.60
2022-08-17T01:37:56.710Z,68.60
2022-08-17T01:40:32.804Z,68.70
2022-08-17T01:43:07.259Z,68.80
2022-08-17T01:45:40.906Z,68.90
2022-08-17T01:48:07.604Z,68.90
2022-08-17T01:50:37.845Z,68.90
2022-08-17T01:53:26.432Z,68.90
2022-08-17T01:56:05.447Z,69.00
2022-08-17T01:58:34.087Z,69.10
2022-08-17T02:01:02.935Z,69.40
2022-08-17T02:03:30.278Z,69.60
2022-08-17T02:05:57.484Z,69.70
2022-08-17T02:08:38.857Z,69.80
2022-08-17T02:11:15.704Z,70.00
2022-08-17T02:13:47.448Z,70.10
2022-08-17T02:16:21.898Z,70.10
2022-08-17T02:18:48.625Z,70.00
2022-08-17T02:21:15.385Z,69.80
2022-08-17T02:23:45.991Z,69.80
2022-08-17T02:26:26.019Z,70.00
2022-08-17T02:28:53.509Z,70.00
2022-08-17T02:31:21.189Z,70.00
2022-08-17T02:34:00.383Z,70.00
2022-08-17T02:36:33.850Z,70.00
2022-08-17T02:39:02.938Z,70.10
2022-08-17T02:41:29.641Z,70.40
2022-08-17T02:43:56.348Z,70.40
2022-08-17T02:46:23.010Z,70.60
2022-08-17T02:48:49.798Z,71.00
2022-08-17T02:51:16.595Z,71.50
2022-08-17T02:53:43.398Z,72.00
2022-08-17T02:56:10.074Z,72.40
2022-08-17T02:58:36.813Z,72.80
2022-08-17T03:01:06.213Z,73.10
2022-08-17T03:03:33.520Z,73.30
2022-08-17T03:06:00.704Z,73.90
2022-08-17T03:08:27.827Z,73.80
2022-08-17T03:10:54.557Z,73.90
2022-08-17T03:13:21.625Z,74.10
2022-08-17T03:15:49.208Z,74.10
2022-08-17T03:18:24.905Z,74.10
2022-08-17T03:20:55.884Z,74.00
2022-08-17T03:23:25.390Z,73.80
2022-08-17T03:25:54.022Z,73.90
2022-08-17T03:28:22.047Z,73.80
2022-08-17T03:30:49.283Z,73.50
2022-08-17T03:33:16.790Z,73.30
2022-08-17T03:35:43.783Z,73.10
2022-08-17T03:38:12.297Z,73.30
2022-08-17T03:40:56.648Z,73.10
2022-08-17T03:43:29.303Z,73.00
2022-08-17T03:46:35.030Z,73.00
2022-08-17T03:49:26.114Z,72.90
2022-08-17T03:52:13.724Z,72.70
2022-08-17T03:54:59.125Z,72.80
2022-08-17T03:57:26.069Z,73.00
2022-08-17T03:59:54.453Z,72.90
2022-08-17T04:02:28.393Z,72.90
2022-08-17T04:04:55.250Z,73.10
2022-08-17T04:07:25.412Z,73.20
2022-08-17T04:09:52.284Z,73.20
2022-08-17T04:12:21.861Z,73.20
2022-08-17T04:14:53.699Z,73.40
2022-08-17T04:17:23.413Z,73.40
2022-08-17T04:19:50.134Z,73.70
2022-08-17T04:22:30.558Z,73.80
2022-08-17T04:25:01.661Z,74.00
2022-08-17T04:27:28.331Z,74.00
2022-08-17T04:29:56.104Z,74.00
2022-08-17T04:33:19.131Z,74.20
2022-08-17T04:35:10.131Z,74.40
2022-08-17T04:37:36.776Z,74.60
2022-08-17T04:40:27.147Z,74.80
2022-08-17T04:43:21.673Z,75.10
2022-08-17T04:45:56.062Z,75.40
2022-08-17T04:48:35.597Z,75.80
2022-08-17T04:51:07.055Z,76.10
2022-08-17T04:53:33.882Z,76.30
2022-08-17T04:56:00.569Z,76.40
2022-08-17T04:58:27.889Z,76.70
2022-08-17T05:00:54.640Z,76.90
2022-08-17T05:03:21.515Z,77.20
2022-08-17T05:05:49.533Z,77.40
2022-08-17T05:08:19.093Z,77.60
2022-08-17T05:10:46.719Z,77.70
2022-08-17T05:13:21.098Z,77.90
2022-08-17T05:15:49.976Z,78.00
2022-08-17T05:18:17.501Z,78.00
2022-08-17T05:20:45.284Z,77.80
2022-08-17T05:23:15.856Z,77.80
2022-08-17T05:25:47.478Z,77.60
2022-08-17T05:28:16.896Z,78.30
2022-08-17T05:30:45.780Z,77.40
2022-08-17T05:33:19.384Z,77.20
2022-08-17T05:35:48.525Z,77.20
2022-08-17T05:38:17.111Z,77.20
2022-08-17T05:40:44.163Z,77.10
2022-08-17T05:43:17.637Z,77.00
2022-08-17T05:46:00.926Z,77.00
2022-08-17T05:48:35.536Z,77.00
2022-08-17T05:51:24.564Z,77.00
2022-08-17T05:54:05.337Z,76.60
2022-08-17T05:56:54.456Z,76.10
2022-08-17T05:59:57.568Z,75.80
2022-08-17T06:02:35.967Z,75.50
2022-08-17T06:05:40.970Z,75.40
2022-08-17T06:08:23.879Z,75.40
2022-08-17T06:10:57.738Z,75.40
2022-08-17T06:13:45.088Z,75.40
2022-08-17T06:16:33.410Z,75.10
2022-08-17T06:19:04.489Z,75.10
2022-08-17T06:21:35.748Z,75.00
2022-08-17T06:24:15.837Z,74.80
2022-08-17T06:26:45.383Z,75.00
2022-08-17T06:29:37.439Z,75.00
2022-08-17T06:32:12.181Z,74.90
2022-08-17T06:34:41.393Z,74.80
2022-08-17T06:37:35.489Z,74.80
2022-08-17T06:40:31.228Z,75.10
2022-08-17T06:43:23.308Z,75.00
2022-08-17T06:46:21.384Z,74.80
2022-08-17T06:49:18.067Z,74.80
2022-08-17T06:51:57.574Z,74.80
2022-08-17T06:54:51.838Z,75.00
2022-08-17T06:57:28.406Z,74.70
2022-08-17T07:00:02.361Z,74.60
2022-08-17T07:02:55.491Z,74.40
2022-08-17T07:05:38.833Z,74.30
2022-08-17T07:08:19.607Z,74.10
2022-08-17T07:10:54.483Z,74.10
2022-08-17T07:13:43.715Z,74.10
2022-08-17T07:16:41.021Z,74.10
2022-08-17T07:19:11.042Z,74.10
2022-08-17T07:22:20.184Z,74.10
2022-08-17T07:24:57.150Z,74.10
2022-08-17T07:27:33.041Z,74.10
2022-08-17T07:30:19.329Z,74.10
2022-08-17T07:32:59.920Z,73.90
2022-08-17T07:35:37.841Z,73.90
2022-08-17T07:38:24.906Z,74.10
2022-08-17T07:41:02.066Z,74.10
2022-08-17T07:43:40.798Z,74.00
2022-08-17T07:46:36.845Z,74.00
2022-08-17T07:49:03.476Z,74.20
2022-08-17T07:51:44.259Z,74.60
2022-08-17T07:54:22.462Z,74.90
2022-08-17T07:56:50.934Z,75.30
2022-08-17T07:59:23.396Z,75.40
2022-08-17T08:01:57.939Z,75.60
2022-08-17T08:07:31.794Z,75.70
2022-08-17T08:10:12.495Z,75.60
2022-08-17T08:13:00.349Z,75.60
2022-08-17T08:15:36.546Z,75.40
2022-08-17T08:18:06.204Z,75.50
2022-08-17T08:20:59.951Z,75.50
2022-08-17T08:23:44.695Z,75.70
2022-08-17T08:26:35.394Z,75.30
2022-08-17T08:29:13.996Z,75.20
2022-08-17T08:32:03.758Z,74.80
2022-08-17T08:35:01.643Z,74.10
2022-08-17T08:38:00.879Z,73.20
2022-08-17T08:40:38.665Z,72.10
2022-08-17T08:43:22.797Z,71.30
2022-08-17T08:46:24.959Z,70.70
2022-08-17T08:49:16.958Z,69.80
2022-08-17T08:52:01.908Z,69.10
2022-08-17T08:54:56.493Z,68.40
2022-08-17T08:57:38.048Z,67.80
2022-08-17T09:00:09.619Z,67.40
2022-08-17T09:02:58.492Z,66.60
2022-08-17T09:06:00.116Z,66.50
2022-08-17T09:08:48.886Z,66.40
2022-08-17T09:11:30.942Z,66.20
2022-08-17T09:14:28.703Z,66.30
2022-08-17T09:17:13.806Z,65.70
2022-08-17T09:20:03.954Z,65.10
2022-08-17T09:22:37.430Z,65.40
2022-08-17T09:25:16.076Z,65.00
2022-08-17T09:28:07.869Z,64.90
2022-08-17T09:30:53.032Z,65.10
2022-08-17T09:33:23.003Z,65.20
2022-08-17T09:36:12.322Z,64.90
2022-08-17T09:38:56.973Z,65.00
2022-08-17T09:41:49.024Z,65.50
2022-08-17T09:44:48.985Z,66.60
2022-08-17T09:47:26.028Z,67.60
2022-08-17T09:50:03.439Z,69.40
2022-08-17T09:52:30.772Z,70.50
2022-08-17T09:55:00.199Z,71.30
2022-08-17T09:57:49.146Z,71.70
2022-08-17T10:00:27.108Z,72.10
2022-08-17T10:03:24.076Z,72.70
2022-08-17T10:06:13.215Z,73.20
2022-08-17T10:08:52.440Z,73.10
2022-08-17T10:12:13.224Z,72.80
2022-08-17T10:15:07.986Z,72.30
2022-08-17T10:17:50.605Z,72.20
2022-08-17T10:20:25.541Z,71.80
2022-08-17T10:23:19.551Z,71.20
2022-08-17T10:26:12.977Z,70.90
2022-08-17T10:28:58.600Z,69.60
2022-08-17T10:31:42.208Z,69.80
2022-08-17T10:34:46.300Z,68.60
2022-08-17T10:37:25.140Z,68.10
2022-08-17T10:40:00.642Z,68.10
2022-08-17T10:42:48.950Z,68.30
2022-08-17T10:45:37.704Z,68.00
2022-08-17T10:48:07.588Z,67.60
2022-08-17T10:50:47.382Z,66.80
2022-08-17T10:53:32.524Z,66.60
2022-08-17T10:56:25.192Z,66.70
2022-08-17T10:58:54.645Z,66.90
2022-08-17T11:02:10.092Z,66.30
2022-08-17T11:04:54.067Z,65.80
2022-08-17T11:07:58.409Z,66.50
2022-08-17T11:11:09.110Z,66.30
2022-08-17T11:14:13.832Z,66.40
2022-08-17T11:17:17.848Z,66.80
2022-08-17T11:20:05.338Z,66.90
2022-08-17T11:22:40.777Z,67.30
2022-08-17T11:25:16.917Z,67.90
2022-08-17T11:27:53.331Z,68.20
2022-08-17T11:30:42.181Z,68.50
2022-08-17T11:33:29.189Z,68.70
2022-08-17T11:36:16.049Z,69.20
2022-08-17T11:39:04.430Z,69.70
2022-08-17T11:42:12.723Z,70.10
2022-08-17T11:44:56.913Z,70.70
2022-08-17T11:48:09.368Z,71.40
2022-08-17T11:51:33.634Z,71.60
2022-08-17T11:54:31.787Z,71.70
2022-08-17T11:57:21.526Z,71.90
2022-08-17T11:59:48.185Z,72.30
2022-08-17T12:02:31.673Z,72.50
2022-08-17T12:05:16.753Z,73.00
2022-08-17T12:07:56.372Z,73.40
2022-08-17T12:10:31.909Z,73.50
2022-08-17T12:13:01.580Z,74.00
2022-08-17T12:15:34.782Z,74.10
2022-08-17T12:18:01.566Z,74.50
2022-08-17T12:20:32.894Z,74.80
2022-08-17T12:23:29.361Z,75.10
2022-08-17T12:25:59.288Z,75.40
2022-08-17T12:28:28.685Z,76.00
2022-08-17T12:31:06.618Z,76.00
2022-08-17T12:33:35.716Z,76.20
2022-08-17T12:36:06.258Z,75.80
2022-08-17T12:38:36.386Z,75.90
2022-08-17T12:41:25.634Z,75.70
2022-08-17T12:44:01.531Z,75.70
2022-08-17T12:46:34.778Z,75.70
2022-08-17T12:49:12.544Z,75.60
2022-08-17T12:51:44.402Z,75.50
2022-08-17T12:54:24.394Z,75.60
2022-08-17T12:56:51.310Z,76.00
2022-08-17T12:59:29.653Z,76.40
2022-08-17T13:01:57.642Z,76.40
2022-08-17T13:04:24.677Z,76.70
2022-08-17T13:06:59.844Z,76.90
2022-08-17T13:09:35.731Z,76.90
2022-08-17T13:12:07.105Z,77.80
2022-08-17T13:14:35.075Z,77.30
2022-08-17T13:17:08.590Z,77.30
2022-08-17T13:19:49.071Z,77.10
2022-08-17T13:22:15.925Z,76.90
2022-08-17T13:24:58.117Z,76.90
2022-08-17T13:27:27.529Z,77.20
2022-08-17T13:29:59.420Z,77.30
2022-08-17T13:32:44.040Z,77.60
2022-08-17T13:35:39.294Z,77.60
2022-08-17T13:38:11.830Z,77.70
2022-08-17T13:40:41.775Z,78.20
2022-08-17T13:43:10.499Z,78.50
2022-08-17T13:45:45.424Z,78.80
2022-08-17T13:48:27.767Z,79.90
2022-08-17T13:50:57.373Z,79.20
2022-08-17T13:53:51.105Z,79.40
2022-08-17T13:56:53.216Z,79.30
2022-08-17T13:59:54.929Z,79.20
2022-08-17T14:02:23.499Z,79.00
2022-08-17T14:04:54.374Z,78.80
2022-08-17T14:07:35.183Z,78.70
2022-08-17T14:10:06.812Z,78.80
2022-08-17T14:12:34.716Z,78.80
2022-08-17T14:15:01.827Z,79.10
2022-08-17T14:17:36.338Z,79.30
2022-08-17T14:20:09.955Z,79.40
2022-08-17T14:22:39.966Z,79.20
2022-08-17T14:25:08.534Z,79.10
2022-08-17T14:27:52.256Z,78.80
2022-08-17T14:30:23.195Z,78.30
2022-08-17T14:32:51.730Z,77.90
2022-08-17T14:35:21.780Z,77.80
2022-08-17T14:37:48.844Z,78.00
2022-08-17T14:40:16.911Z,77.80
2022-08-17T14:42:45.923Z,77.60
2022-08-17T14:45:29.553Z,77.60
2022-08-17T14:48:01.484Z,77.10
2022-08-17T14:50:28.145Z,76.70
2022-08-17T14:52:56.205Z,76.70
2022-08-17T14:55:24.771Z,76.40
2022-08-17T14:57:51.648Z,76.60
2022-08-17T15:00:18.632Z,76.90
2022-08-17T15:02:54.082Z,77.00
2022-08-17T15:05:24.507Z,77.20
2022-08-17T15:07:53.278Z,77.70
2022-08-17T15:10:20.702Z,77.50
2022-08-17T15:12:47.507Z,77.50
2022-08-17T15:15:16.621Z,77.50
2022-08-17T15:17:45.954Z,77.60
2022-08-17T15:20:16.590Z,77.60
2022-08-17T15:22:44.343Z,77.70
2022-08-17T15:25:12.932Z,77.50
2022-08-17T15:27:40.233Z,77.60
2022-08-17T15:30:08.477Z,77.50
2022-08-17T15:32:38.764Z,78.20
2022-08-17T15:35:08.711Z,77.10
2022-08-17T15:37:36.208Z,77.10
2022-08-17T15:40:03.919Z,77.20
2022-08-17T15:42:31.038Z,77.20
2022-08-17T15:44:59.834Z,77.60
2022-08-17T15:47:26.981Z,77.70
2022-08-17T15:49:59.449Z,77.50
2022-08-17T15:52:31.805Z,77.30
2022-08-17T15:55:00.673Z,76.80
2022-08-17T15:57:28.034Z,76.30
2022-08-17T15:59:59.055Z,76.10
2022-08-17T16:03:45.507Z,75.80
2022-08-17T16:05:24.938Z,75.60
2022-08-17T16:07:52.814Z,75.50
2022-08-17T16:10:19.914Z,75.30
2022-08-17T16:12:48.876Z,75.20
2022-08-17T16:15:16.437Z,75.20
2022-08-17T16:17:43.421Z,74.80
2022-08-17T16:20:20.597Z,74.60
2022-08-17T16:22:49.017Z,74.70
2022-08-17T16:25:22.797Z,74.70
2022-08-17T16:28:06.089Z,74.20
2022-08-17T16:30:33.257Z,73.60
2022-08-17T16:33:01.670Z,73.60
2022-08-17T16:35:28.368Z,73.10
2022-08-17T16:37:57.036Z,73.60
2022-08-17T16:40:27.583Z,73.80
2022-08-17T16:42:55.432Z,74.10
2022-08-17T16:45:36.262Z,74.40
2022-08-17T16:48:03.383Z,74.90
2022-08-17T16:50:31.698Z,75.10
2022-08-17T16:53:10.660Z,75.40
2022-08-17T16:55:38.136Z,75.50
2022-08-17T16:58:06.297Z,75.80
2022-08-17T17:00:33.665Z,76.20
2022-08-17T17:03:19.715Z,77.20
2022-08-17T17:06:07.950Z,76.30
2022-08-17T17:09:02.248Z,76.60
2022-08-17T17:11:33.508Z,77.70
2022-08-17T17:14:05.439Z,76.80
2022-08-17T17:16:37.272Z,77.00
2022-08-17T17:19:34.529Z,76.90
2022-08-17T17:22:08.158Z,76.80
2022-08-17T17:24:47.084Z,77.20
2022-08-17T17:27:31.760Z,76.90
2022-08-17T17:30:03.944Z,77.10
2022-08-17T17:32:30.941Z,77.00
2022-08-17T17:35:06.786Z,77.00
2022-08-17T17:37:35.669Z,77.00
2022-08-17T17:40:28.429Z,77.50
2022-08-17T17:43:14.351Z,77.40
2022-08-17T17:46:26.662Z,77.40
2022-08-17T17:48:52.745Z,77.80
2022-08-17T17:52:09.327Z,78.00
2022-08-17T17:54:53.980Z,78.00
2022-08-17T17:58:00.270Z,78.10
2022-08-17T18:00:57.204Z,78.20
2022-08-17T18:03:52.254Z,78.30
2022-08-17T18:06:41.083Z,78.30
2022-08-17T18:09:23.620Z,78.30
2022-08-17T18:12:11.722Z,78.40
2022-08-17T18:14:54.870Z,78.60
2022-08-17T18:17:22.108Z,78.60
2022-08-17T18:19:48.903Z,78.80
2022-08-17T18:22:19.603Z,78.90
2022-08-17T18:24:49.438Z,79.00
2022-08-17T18:27:32.484Z,79.20
2022-08-17T18:30:25.208Z,79.20
2022-08-17T18:32:52.018Z,79.30
2022-08-17T18:35:18.636Z,79.80
2022-08-17T18:37:57.721Z,80.30
2022-08-17T18:40:32.262Z,80.40
2022-08-17T18:43:25.412Z,80.80
2022-08-17T18:45:54.900Z,80.90
2022-08-17T18:48:36.437Z,81.30
2022-08-17T18:51:42.252Z,81.50
2022-08-17T18:54:18.965Z,81.70
2022-08-17T18:56:55.981Z,82.10
2022-08-17T18:59:28.733Z,82.20
2022-08-17T19:02:11.589Z,81.90
2022-08-17T19:05:07.753Z,81.90
2022-08-17T19:07:39.058Z,81.80
2022-08-17T19:10:22.052Z,81.50
2022-08-17T19:13:12.644Z,81.90
2022-08-17T19:16:07.778Z,82.00
2022-08-17T19:18:58.678Z,82.30
2022-08-17T19:21:30.476Z,82.50
2022-08-17T19:24:19.310Z,82.40
2022-08-17T19:26:55.721Z,82.30
2022-08-17T19:29:35.708Z,82.50
2022-08-17T19:32:03.645Z,82.50
2022-08-17T19:34:34.646Z,82.40
2022-08-17T19:37:16.384Z,82.50
2022-08-17T19:40:41.910Z,82.20
2022-08-17T19:43:20.357Z,82.30
2022-08-17T19:45:56.050Z,82.30
2022-08-17T19:48:25.804Z,82.40
2022-08-17T19:51:20.377Z,82.40
2022-08-17T19:54:20.346Z,82.10
2022-08-17T19:57:06.616Z,82.10
2022-08-17T19:59:53.726Z,82.20
2022-08-17T20:03:06.122Z,82.30
2022-08-17T20:06:01.372Z,82.10
2022-08-17T20:08:29.302Z,82.60
2022-08-17T20:11:10.048Z,82.60
2022-08-17T20:13:40.204Z,82.40
2022-08-17T20:16:09.978Z,82.60
2022-08-17T20:18:37.574Z,82.80
2022-08-17T20:21:42.412Z,83.10
2022-08-17T20:24:36.854Z,83.10
2022-08-17T20:27:16.482Z,83.30
2022-08-17T20:29:59.551Z,83.50
2022-08-17T20:32:33.096Z,83.60
2022-08-17T20:35:20.431Z,83.80
2022-08-17T20:37:57.335Z,83.50
2022-08-17T20:40:27.727Z,83.50
2022-08-17T20:42:55.405Z,83.50
2022-08-17T20:45:22.075Z,83.60
2022-08-17T20:48:15.994Z,83.80
2022-08-17T20:50:50.587Z,83.90
2022-08-17T20:53:48.067Z,83.80
2022-08-17T20:56:49.147Z,83.70
2022-08-17T20:59:25.547Z,83.80
2022-08-17T21:02:18.621Z,83.80
2022-08-17T21:04:54.273Z,83.70
2022-08-17T21:07:43.721Z,83.80
2022-08-17T21:10:16.445Z,83.60
2022-08-17T21:13:02.545Z,83.50
2022-08-17T21:15:53.789Z,83.30
2022-08-17T21:18:40.691Z,83.50
2022-08-17T21:21:34.231Z,83.70
2022-08-17T21:24:36.121Z,83.50
2022-08-17T21:27:24.488Z,83.70
2022-08-17T21:30:06.491Z,83.70
2022-08-17T21:32:35.814Z,83.90
2022-08-17T21:35:25.122Z,84.00
2022-08-17T21:37:57.229Z,83.70
2022-08-17T21:40:30.872Z,83.70
2022-08-17T21:43:16.843Z,83.40
2022-08-17T21:45:53.789Z,83.30
2022-08-17T21:48:24.702Z,83.30
2022-08-17T21:51:06.136Z,83.40
2022-08-17T21:53:51.137Z,83.50
2022-08-17T21:56:25.515Z,83.50
2022-08-17T21:59:27.448Z,83.30
2022-08-17T22:02:09.041Z,82.90
2022-08-17T22:04:38.672Z,83.10
2022-08-17T22:07:11.955Z,83.20
2022-08-17T22:09:45.729Z,82.90
2022-08-17T22:12:21.230Z,83.20
2022-08-17T22:15:05.722Z,83.10
2022-08-17T22:17:49.025Z,83.20
2022-08-17T22:20:19.225Z,83.00
2022-08-17T22:23:04.582Z,83.00
2022-08-17T22:25:33.590Z,83.10
2022-08-17T22:28:02.791Z,83.10
2022-08-17T22:30:33.965Z,83.00
2022-08-17T22:33:22.186Z,83.20
2022-08-17T22:35:49.922Z,83.20
2022-08-17T22:38:19.009Z,83.20
2022-08-17T22:40:51.653Z,83.30
2022-08-17T22:43:24.192Z,83.40
2022-08-17T22:45:56.796Z,83.30
2022-08-17T22:48:27.180Z,83.30
2022-08-17T22:51:12.363Z,83.40
2022-08-17T22:54:13.264Z,83.60
2022-08-17T22:57:25.705Z,83.50
2022-08-17T22:59:55.397Z,83.60
2022-08-17T23:02:32.214Z,83.70
2022-08-17T23:05:13.861Z,83.60
2022-08-17T23:07:42.436Z,83.50
2022-08-17T23:10:11.204Z,84.40
2022-08-17T23:12:39.748Z,83.70
2022-08-17T23:15:18.912Z,83.50
2022-08-17T23:17:45.868Z,83.50
2022-08-17T23:20:14.972Z,83.70
2022-08-17T23:22:52.861Z,83.70
2022-08-17T23:25:27.945Z,83.80
2022-08-17T23:27:55.303Z,83.50
2022-08-17T23:30:25.258Z,83.50
2022-08-17T23:32:54.252Z,83.30
2022-08-17T23:35:40.013Z,83.20
2022-08-17T23:38:09.610Z,83.30
2022-08-17T23:40:37.641Z,83.50
2022-08-17T23:43:09.909Z,83.50
2022-08-17T23:45:52.841Z,83.50
2022-08-17T23:48:35.227Z,83.40
2022-08-17T23:51:05.780Z,83.30
2022-08-17T23:53:34.764Z,83.20
2022-08-17T23:56:06.934Z,83.20
2022-08-17T23:58:42.261Z,83.40
